Observations for SOUTHAMPTON WX CNTR, United Kingdom (EGHI)

EGHI 231050Z 22007KT 190V250 9999 -DZ FEW006 BKN008 14/13 Q1017 
EGHI 231020Z 22008KT 6000 -DZ FEW006 BKN008 14/13 Q1017 
EGHI 230950Z 22008KT 180V240 6000 -RADZ BKN006 14/13 Q1017  
EGHI 230920Z 20008KT 170V230 6000 -RADZ BKN005 14/13 Q1017  
EGHI 230850Z 20008KT 7000 -RADZ BKN005 13/12 Q1018  
EGHI 230820Z 20006KT 6000 -RADZ BKN006 13/12 Q1018  
EGHI 230750Z 20005KT 6000 -RADZ BKN006 12/11 Q1018  
EGHI 230720Z 20004KT 6000 -RA FEW006 BKN008 12/11 Q1018 
EGHI 230650Z 20004KT 6000 -RA FEW007 BKN011 12/11 Q1018 
EGHI 230620Z 20004KT 8000 -RA FEW010 BKN013 12/11 Q1018 
EGHI 230550Z VRB03KT 9999 -RA FEW018 BKN025 12/11 Q1018 
EGHI 230520Z 20003KT 9999 -RA FEW018 BKN034 11/10 Q1019 
EGHI 230450Z 20005KT 9999 -RA FEW015 BKN034 11/10 Q1019 
EGHI 222150Z 26006KT 230V290 9999 SCT040 11/07 Q1020
EGHI 222120Z 24006KT 220V290 9999 SCT040 11/07 Q1020
EGHI 222050Z 25007KT 9999 FEW040 11/07 Q1019
EGHI 222020Z 25005KT 9999 FEW030 11/07 Q1019
EGHI 221950Z 25006KT 9999 FEW030 11/08 Q1019
EGHI 221920Z 26008KT 220V280 9999 FEW030 11/08 Q1019
EGHI 221850Z 31005KT 250V350 9999 FEW020 SCT031 11/08 Q1019 
EGHI 221820Z 27005KT 230V300 9999 FEW027 SCT040 11/08 Q1018 
EGHI 221750Z 26006KT 230V290 9999 FEW027 SCT040 11/08 Q1018 
EGHI 221720Z 27007KT 9999 VCSH FEW024 SCT036 11/08 Q1017
EGHI 221650Z 27009KT 240V300 9999 VCSH FEW024 SCT036 11/08 Q1017
EGHI 221620Z 27007KT 230V310 9999 VCSH FEW021 SCT037 12/08 Q1017
EGHI 221550Z 28007KT 240V310 9999 -SHRA FEW021 SCT037 12/09 Q1017   
EGHI 221520Z 26009KT 220V300 9999 FEW021 SCT037 12/08 Q1016 
EGHI 221450Z 25008KT 200V280 9999 FEW021 SCT035 12/08 Q1017 
EGHI 221420Z 27010KT 210V310 9999 FEW035 SCT041 12/07 Q1016 
EGHI 221350Z 28012G23KT 230V320 9999 FEW038 SCT041 13/06 Q1016  
EGHI 221320Z 28008G21KT 250V330 9999 FEW038 SCT041 13/05 Q1016  
EGHI 221250Z 29012G24KT 250V330 9999 SCT038 12/04 Q1016 
EGHI 221220Z 29016G27KT 260V340 9999 FEW038 12/04 Q1016 
EGHI 221150Z 30020G33KT 260V330 9999 SCT038 12/03 Q1016 
EGHI 221120Z 29015G27KT 240V330 9999 SCT038 12/03 Q1016 
EGHI 221050Z 29013G25KT 240V360 9999 SCT038 11/03 Q1015 
EGHI 221020Z 27011G21KT 230V330 9999 SCT028 10/04 Q1015